createdAt,value
2023-02-14T00:01:20.918Z,84.72
2023-02-14T00:03:49.702Z,84.68
2023-02-14T00:06:17.046Z,84.72
2023-02-14T00:08:45.267Z,84.80
2023-02-14T00:11:14.034Z,84.69
2023-02-14T00:14:01.500Z,84.43
2023-02-14T00:16:28.799Z,84.72
2023-02-14T00:21:50.175Z,84.56
2023-02-14T00:24:24.001Z,84.71
2023-02-14T00:26:52.383Z,84.55
2023-02-14T00:29:29.813Z,84.34
2023-02-14T00:31:57.486Z,84.53
2023-02-14T00:34:25.311Z,84.46
2023-02-14T00:36:52.994Z,84.58
2023-02-14T00:39:20.680Z,84.33
2023-02-14T00:41:47.895Z,84.07
2023-02-14T00:44:15.371Z,84.23
2023-02-14T00:46:43.620Z,84.47
2023-02-14T00:49:11.016Z,84.74
2023-02-14T00:51:39.029Z,84.54
2023-02-14T00:54:06.594Z,84.55
2023-02-14T00:56:33.949Z,84.41
2023-02-14T00:59:01.206Z,84.13
2023-02-14T01:01:29.117Z,84.04
2023-02-14T01:03:56.995Z,84.19
2023-02-14T01:06:24.454Z,84.39
2023-02-14T01:08:52.333Z,84.37
2023-02-14T01:11:22.150Z,84.52
2023-02-14T01:13:50.893Z,84.69
2023-02-14T01:16:21.354Z,84.50
2023-02-14T01:18:49.452Z,84.59
2023-02-14T01:21:23.096Z,84.53
2023-02-14T01:23:52.942Z,84.56
2023-02-14T01:26:22.461Z,84.60
2023-02-14T01:28:50.719Z,84.56
2023-02-14T01:31:27.899Z,84.40
2023-02-14T01:33:56.667Z,84.43
2023-02-14T01:36:26.788Z,84.61
2023-02-14T01:38:56.982Z,84.55
2023-02-14T01:41:26.131Z,84.71
2023-02-14T01:44:02.882Z,84.52
2023-02-14T01:46:34.949Z,84.57
2023-02-14T01:49:19.017Z,84.58
2023-02-14T01:51:53.605Z,84.58
2023-02-14T01:54:24.629Z,84.76
2023-02-14T01:56:58.102Z,84.65
2023-02-14T01:59:31.382Z,84.76
2023-02-14T02:04:56.868Z,84.49
2023-02-14T02:07:27.704Z,84.55
2023-02-14T02:10:02.019Z,84.62
2023-02-14T02:12:31.000Z,84.46
2023-02-14T02:15:00.477Z,84.52
2023-02-14T02:17:49.560Z,84.64
2023-02-14T02:20:41.247Z,84.47
2023-02-14T02:23:09.042Z,84.49
2023-02-14T02:26:13.552Z,84.39
2023-02-14T02:29:18.437Z,84.72
2023-02-14T02:31:52.056Z,84.43
2023-02-14T02:34:38.665Z,84.67
2023-02-14T02:37:33.363Z,84.51
2023-02-14T02:40:22.988Z,84.48
2023-02-14T02:42:56.351Z,84.17
2023-02-14T02:45:37.737Z,84.21
2023-02-14T02:48:10.709Z,84.61
2023-02-14T02:51:08.559Z,84.47
2023-02-14T02:53:35.970Z,84.48
2023-02-14T02:56:30.516Z,84.50
2023-02-14T02:59:07.057Z,84.61
2023-02-14T03:01:40.069Z,84.54
2023-02-14T03:04:31.113Z,84.33
2023-02-14T03:07:00.230Z,84.53
2023-02-14T03:09:27.454Z,84.62
2023-02-14T03:12:23.235Z,84.97
2023-02-14T03:14:58.919Z,84.44
2023-02-14T03:18:04.935Z,84.71
2023-02-14T03:20:46.032Z,84.63
2023-02-14T03:23:30.907Z,84.67
2023-02-14T03:26:05.383Z,84.40
2023-02-14T03:28:47.932Z,84.83
2023-02-14T03:31:35.045Z,84.68
2023-02-14T03:34:11.699Z,84.85
2023-02-14T03:36:43.455Z,84.35
2023-02-14T03:39:39.989Z,84.39
2023-02-14T03:42:17.726Z,84.44
2023-02-14T03:44:48.505Z,84.56
2023-02-14T03:47:22.025Z,84.57
2023-02-14T03:49:57.992Z,84.32
2023-02-14T03:52:28.924Z,84.57
2023-02-14T03:54:59.057Z,84.52
2023-02-14T03:57:37.815Z,84.43
2023-02-14T04:00:06.436Z,84.64
2023-02-14T04:02:47.221Z,84.44
2023-02-14T04:05:24.721Z,84.51
2023-02-14T04:07:55.187Z,84.26
2023-02-14T04:10:23.884Z,84.55
2023-02-14T04:12:51.754Z,84.29
2023-02-14T04:15:19.547Z,84.23
2023-02-14T04:18:05.733Z,84.43
2023-02-14T04:20:34.732Z,84.43
2023-02-14T04:23:03.532Z,84.47
2023-02-14T04:25:31.262Z,84.58
2023-02-14T04:27:58.839Z,84.36
2023-02-14T04:30:27.185Z,84.21
2023-02-14T04:32:55.247Z,84.46
2023-02-14T04:35:22.820Z,84.27
2023-02-14T04:37:50.421Z,84.26
2023-02-14T04:40:18.216Z,84.12
2023-02-14T04:42:46.423Z,84.35
2023-02-14T04:45:14.583Z,84.28
2023-02-14T04:47:42.577Z,84.45
2023-02-14T04:50:11.659Z,84.64
2023-02-14T04:52:39.722Z,84.53
2023-02-14T04:55:08.110Z,84.53
2023-02-14T04:57:35.562Z,84.54
2023-02-14T05:00:04.308Z,84.16
2023-02-14T05:02:33.348Z,84.32
2023-02-14T05:05:00.877Z,84.28
2023-02-14T05:07:29.116Z,84.15
2023-02-14T05:09:56.807Z,84.13
2023-02-14T05:12:24.477Z,84.33
2023-02-14T05:14:52.333Z,84.35
2023-02-14T05:17:19.905Z,84.23
2023-02-14T05:19:47.373Z,84.36
2023-02-14T05:22:16.838Z,84.46
2023-02-14T05:24:45.667Z,84.24
2023-02-14T05:27:13.879Z,84.40
2023-02-14T05:29:41.606Z,84.70
2023-02-14T05:32:09.482Z,84.08
2023-02-14T05:34:36.882Z,84.38
2023-02-14T05:37:04.745Z,84.31
2023-02-14T05:39:32.297Z,84.18
2023-02-14T05:42:00.769Z,83.91
2023-02-14T05:44:28.234Z,83.87
2023-02-14T05:46:55.985Z,84.19
2023-02-14T05:49:23.310Z,84.38
2023-02-14T05:51:50.883Z,84.22
2023-02-14T05:54:18.605Z,84.24
2023-02-14T05:56:46.105Z,83.99
2023-02-14T05:59:15.108Z,84.37
2023-02-14T06:01:42.685Z,84.21
2023-02-14T06:04:10.161Z,84.38
2023-02-14T06:06:38.245Z,84.09
2023-02-14T06:09:06.044Z,84.29
2023-02-14T06:11:58.630Z,83.98
2023-02-14T06:14:28.388Z,84.26
2023-02-14T06:17:01.793Z,84.28
2023-02-14T06:19:50.105Z,84.43
2023-02-14T06:23:19.549Z,84.53
2023-02-14T06:27:07.857Z,84.23
2023-02-14T06:30:57.366Z,84.51
2023-02-14T06:34:45.765Z,84.56
2023-02-14T06:38:33.997Z,84.59
2023-02-14T06:42:22.532Z,84.38
2023-02-14T06:46:10.695Z,84.67
2023-02-14T06:50:08.552Z,84.54
2023-02-14T06:53:56.523Z,84.81
2023-02-14T06:57:44.638Z,84.54
2023-02-14T07:01:32.779Z,84.46
2023-02-14T07:05:22.160Z,84.44
2023-02-14T07:09:10.161Z,84.42
2023-02-14T07:12:58.252Z,84.29
2023-02-14T07:16:46.390Z,84.48
2023-02-14T07:20:34.288Z,84.46
2023-02-14T07:24:22.906Z,84.41
2023-02-14T07:28:11.789Z,84.48
2023-02-14T07:32:02.573Z,84.61
2023-02-14T07:39:35.609Z,84.22
2023-02-14T07:43:23.590Z,84.33
2023-02-14T07:47:11.955Z,84.45
2023-02-14T07:51:00.283Z,84.37
2023-02-14T07:54:48.453Z,84.59
2023-02-14T07:58:36.512Z,84.33
2023-02-14T08:02:31.744Z,84.51
2023-02-14T08:06:19.813Z,84.78
2023-02-14T08:10:07.997Z,84.43
2023-02-14T08:13:56.924Z,84.57
2023-02-14T08:17:47.639Z,84.20
2023-02-14T08:21:35.440Z,84.56
2023-02-14T08:25:23.449Z,84.55
2023-02-14T08:29:11.375Z,84.66
2023-02-14T08:32:59.803Z,84.47
2023-02-14T08:36:47.632Z,84.23
2023-02-14T08:40:35.861Z,84.53
2023-02-14T08:44:23.857Z,84.12
2023-02-14T08:48:12.061Z,84.24
2023-02-14T08:52:00.057Z,83.91
2023-02-14T08:55:51.152Z,84.08
2023-02-14T08:59:39.083Z,83.99
2023-02-14T09:03:27.391Z,83.84
2023-02-14T09:07:14.930Z,83.98
2023-02-14T09:11:03.465Z,83.88
2023-02-14T09:14:51.440Z,83.77
2023-02-14T09:18:42.254Z,83.58
2023-02-14T09:22:30.448Z,83.60
2023-02-14T09:26:18.854Z,83.68
2023-02-14T09:30:06.730Z,83.41
2023-02-14T09:33:55.424Z,83.61
2023-02-14T09:37:43.433Z,83.42
2023-02-14T09:41:31.791Z,83.16
2023-02-14T09:45:40.800Z,82.96
2023-02-14T09:49:31.707Z,82.88
2023-02-14T09:53:19.747Z,82.55
2023-02-14T09:57:11.891Z,82.33
2023-02-14T10:05:14.813Z,82.12
2023-02-14T10:09:05.867Z,82.36
2023-02-14T10:13:09.197Z,82.24
2023-02-14T10:16:58.062Z,82.42
2023-02-14T10:20:58.586Z,82.10
2023-02-14T10:24:52.168Z,81.53
2023-02-14T10:28:43.617Z,81.79
2023-02-14T10:32:40.829Z,82.07
2023-02-14T10:36:44.099Z,81.80
2023-02-14T10:40:38.785Z,81.55
2023-02-14T10:44:42.007Z,81.48
2023-02-14T10:48:34.520Z,81.37
2023-02-14T10:52:46.699Z,81.45
2023-02-14T10:56:35.290Z,81.32
2023-02-14T11:00:34.080Z,81.59
2023-02-14T11:04:23.378Z,81.52
2023-02-14T11:08:14.782Z,81.03
2023-02-14T11:12:03.669Z,80.85
2023-02-14T11:15:58.869Z,81.13
2023-02-14T11:19:28.840Z,80.25
2023-02-14T11:23:17.029Z,80.03
2023-02-14T11:27:04.700Z,79.89
2023-02-14T11:30:55.362Z,80.15
2023-02-14T11:34:44.118Z,79.84
2023-02-14T11:38:34.371Z,80.21
2023-02-14T11:42:27.273Z,79.99
2023-02-14T11:45:05.793Z,79.88
2023-02-14T11:47:47.920Z,79.79
2023-02-14T11:51:21.410Z,79.46
2023-02-14T11:54:52.699Z,79.44
2023-02-14T11:58:42.039Z,79.44
2023-02-14T12:02:31.268Z,79.86
2023-02-14T12:05:52.660Z,79.59
2023-02-14T12:08:33.929Z,79.39
2023-02-14T12:11:06.743Z,79.11
2023-02-14T12:13:34.344Z,79.17
2023-02-14T12:16:08.464Z,79.16
2023-02-14T12:19:12.356Z,79.15
2023-02-14T12:21:59.666Z,78.71
2023-02-14T12:25:11.325Z,78.86
2023-02-14T12:28:02.086Z,78.94
2023-02-14T12:30:35.075Z,78.83
2023-02-14T12:33:47.139Z,79.01
2023-02-14T12:36:41.182Z,78.37
2023-02-14T12:39:37.781Z,78.55
2023-02-14T12:43:03.512Z,78.48
2023-02-14T12:46:32.395Z,78.39
2023-02-14T12:49:31.514Z,78.50
2023-02-14T12:52:57.560Z,77.93
2023-02-14T12:56:13.966Z,78.29
2023-02-14T12:59:30.249Z,77.94
2023-02-14T13:02:36.832Z,78.10
2023-02-14T13:05:57.395Z,78.03
2023-02-14T13:09:19.372Z,78.10
2023-02-14T13:12:00.980Z,77.82
2023-02-14T13:15:24.066Z,77.96
2023-02-14T13:18:19.366Z,77.74
2023-02-14T13:21:16.498Z,77.53
2023-02-14T13:24:27.452Z,77.34
2023-02-14T13:27:22.348Z,76.52
2023-02-14T13:30:19.920Z,77.14
2023-02-14T13:32:56.011Z,77.44
2023-02-14T13:35:32.595Z,77.33
2023-02-14T13:38:10.522Z,77.53
2023-02-14T13:41:01.671Z,76.70
2023-02-14T13:43:59.516Z,77.00
2023-02-14T13:46:33.584Z,76.98
2023-02-14T13:49:08.017Z,77.34
2023-02-14T13:51:58.592Z,77.22
2023-02-14T13:54:48.392Z,77.10
2023-02-14T13:57:59.946Z,77.09
2023-02-14T14:00:41.851Z,76.98
2023-02-14T14:03:34.737Z,76.79
2023-02-14T14:06:08.929Z,76.46
2023-02-14T14:08:42.289Z,76.57
2023-02-14T14:11:36.005Z,76.90
2023-02-14T14:14:24.902Z,76.77
2023-02-14T14:17:03.360Z,76.39
2023-02-14T14:19:30.522Z,76.43
2023-02-14T14:22:02.617Z,76.67
2023-02-14T14:24:32.359Z,76.10
2023-02-14T14:27:01.448Z,76.26
2023-02-14T14:29:39.128Z,76.69
2023-02-14T14:32:11.497Z,76.83
2023-02-14T14:34:48.811Z,76.89
2023-02-14T14:37:23.429Z,76.67
2023-02-14T14:39:56.685Z,76.77
2023-02-14T14:42:28.294Z,76.79
2023-02-14T14:45:03.349Z,76.88
2023-02-14T14:47:43.954Z,76.63
2023-02-14T14:50:22.817Z,76.65
2023-02-14T14:52:57.439Z,76.51
2023-02-14T14:55:35.029Z,76.62
2023-02-14T14:58:04.951Z,76.31
2023-02-14T15:00:39.262Z,76.13
2023-02-14T15:03:13.179Z,76.33
2023-02-14T15:05:43.831Z,76.39
2023-02-14T15:08:33.495Z,76.54
2023-02-14T15:11:08.106Z,76.65
2023-02-14T15:13:51.578Z,76.40
2023-02-14T15:16:20.197Z,76.33
2023-02-14T15:18:49.529Z,76.68
2023-02-14T15:21:18.433Z,76.53
2023-02-14T15:23:48.245Z,76.75
2023-02-14T15:26:40.176Z,76.83
2023-02-14T15:29:08.442Z,76.62
2023-02-14T15:32:18.386Z,76.61
2023-02-14T15:35:22.055Z,76.64
2023-02-14T15:38:29.290Z,76.78
2023-02-14T15:41:56.691Z,76.82
2023-02-14T15:45:39.065Z,76.76
2023-02-14T15:48:39.745Z,76.86
2023-02-14T15:51:48.170Z,77.00
2023-02-14T15:55:19.799Z,77.00
2023-02-14T15:58:34.628Z,77.06
2023-02-14T16:02:02.486Z,77.08
2023-02-14T16:05:29.743Z,76.99
2023-02-14T16:09:21.876Z,77.13
2023-02-14T16:12:52.966Z,77.20
2023-02-14T16:16:20.494Z,77.27
2023-02-14T16:19:35.769Z,77.16
2023-02-14T16:22:44.582Z,77.14
2023-02-14T16:26:31.987Z,77.14
2023-02-14T16:30:00.003Z,77.20
2023-02-14T16:33:30.529Z,77.33
2023-02-14T16:37:16.211Z,77.58
2023-02-14T16:40:43.994Z,77.07
2023-02-14T16:44:12.441Z,77.14
2023-02-14T16:47:17.001Z,77.33
2023-02-14T16:50:53.445Z,77.25
2023-02-14T16:54:40.548Z,77.25
2023-02-14T16:58:30.943Z,77.45
2023-02-14T17:02:26.703Z,77.67
2023-02-14T17:06:14.328Z,77.72
2023-02-14T17:10:02.386Z,77.57
2023-02-14T17:13:32.273Z,77.59
2023-02-14T17:17:00.981Z,77.38
2023-02-14T17:20:48.827Z,77.76
2023-02-14T17:24:35.929Z,77.92
2023-02-14T17:28:23.329Z,77.95
2023-02-14T17:31:05.320Z,77.87
2023-02-14T17:34:03.770Z,78.04
2023-02-14T17:36:59.184Z,78.01
2023-02-14T17:39:29.243Z,77.81
2023-02-14T17:41:58.870Z,77.90
2023-02-14T17:44:27.026Z,78.14
2023-02-14T17:47:04.169Z,78.08
2023-02-14T17:49:32.683Z,78.08
2023-02-14T17:52:01.824Z,77.98
2023-02-14T17:54:50.011Z,78.05
2023-02-14T17:57:18.666Z,77.99
2023-02-14T17:59:52.315Z,78.26
2023-02-14T18:02:21.572Z,78.06
2023-02-14T18:04:50.908Z,78.20
2023-02-14T18:07:40.354Z,78.39
2023-02-14T18:10:10.440Z,78.19
2023-02-14T18:13:04.254Z,78.23
2023-02-14T18:15:34.607Z,78.30
2023-02-14T18:18:11.702Z,78.12
2023-02-14T18:20:39.973Z,78.17
2023-02-14T18:23:13.496Z,78.24
2023-02-14T18:26:07.621Z,78.31
2023-02-14T18:28:37.849Z,78.19
2023-02-14T18:31:11.375Z,78.33
2023-02-14T18:33:42.445Z,78.40
2023-02-14T18:36:21.906Z,78.55
2023-02-14T18:38:53.249Z,78.62
2023-02-14T18:41:47.118Z,78.67
2023-02-14T18:44:15.813Z,78.55
2023-02-14T18:46:43.671Z,78.39
2023-02-14T18:49:14.216Z,78.48
2023-02-14T18:51:43.727Z,78.43
2023-02-14T18:54:13.950Z,78.52
2023-02-14T18:56:45.793Z,78.70
2023-02-14T18:59:18.396Z,78.65
2023-02-14T19:01:48.719Z,78.91
2023-02-14T19:04:19.947Z,78.54
2023-02-14T19:06:50.653Z,78.47
2023-02-14T19:09:19.772Z,78.88
2023-02-14T19:11:50.594Z,78.77
2023-02-14T19:14:22.337Z,78.53
2023-02-14T19:16:56.798Z,78.66
2023-02-14T19:19:25.469Z,78.73
2023-02-14T19:21:54.773Z,78.57
2023-02-14T19:24:29.816Z,78.69
2023-02-14T19:27:02.613Z,78.54
2023-02-14T19:29:31.348Z,78.72
2023-02-14T19:31:59.938Z,78.98
2023-02-14T19:34:31.407Z,78.86
2023-02-14T19:37:01.884Z,78.70
2023-02-14T19:39:36.467Z,78.90
2023-02-14T19:42:10.605Z,78.70
2023-02-14T19:44:39.218Z,78.95
2023-02-14T19:47:23.520Z,78.96
2023-02-14T19:49:59.201Z,79.02
2023-02-14T19:52:31.629Z,79.19
2023-02-14T19:55:41.861Z,78.83
2023-02-14T19:58:44.471Z,78.74
2023-02-14T20:01:37.289Z,78.45
2023-02-14T20:04:10.918Z,78.81
2023-02-14T20:06:49.859Z,79.18
2023-02-14T20:09:22.888Z,79.14
2023-02-14T20:11:55.463Z,79.11
2023-02-14T20:14:35.953Z,79.30
2023-02-14T20:17:11.739Z,78.90
2023-02-14T20:19:40.632Z,78.99
2023-02-14T20:22:09.437Z,79.10
2023-02-14T20:24:39.516Z,79.29
2023-02-14T20:27:10.332Z,79.40
2023-02-14T20:29:40.870Z,79.25
2023-02-14T20:32:09.521Z,79.44
2023-02-14T20:34:39.771Z,79.82
2023-02-14T20:37:08.758Z,79.48
2023-02-14T20:39:39.380Z,79.16
2023-02-14T20:42:09.567Z,79.07
2023-02-14T20:44:38.135Z,79.17
2023-02-14T20:47:10.492Z,78.94
2023-02-14T20:49:40.261Z,79.09
2023-02-14T20:52:08.854Z,79.24
2023-02-14T20:54:41.709Z,79.45
2023-02-14T20:57:10.176Z,79.42
2023-02-14T20:59:40.315Z,79.58
2023-02-14T21:02:10.626Z,79.39
2023-02-14T21:04:38.670Z,79.10
2023-02-14T21:07:11.712Z,79.18
2023-02-14T21:09:43.420Z,79.41
2023-02-14T21:12:12.168Z,79.24
2023-02-14T21:14:43.349Z,79.59
2023-02-14T21:17:13.838Z,79.59
2023-02-14T21:19:43.664Z,79.76
2023-02-14T21:22:13.607Z,79.52
2023-02-14T21:24:41.961Z,79.46
2023-02-14T21:27:14.052Z,79.57
2023-02-14T21:29:42.507Z,79.58
2023-02-14T21:32:15.041Z,79.66
2023-02-14T21:34:44.580Z,79.59
2023-02-14T21:37:19.207Z,79.66
2023-02-14T21:39:46.365Z,79.60
2023-02-14T21:42:13.476Z,79.65
2023-02-14T21:44:59.014Z,79.85
2023-02-14T21:47:26.349Z,79.65
2023-02-14T21:50:12.832Z,79.67
2023-02-14T21:52:40.160Z,79.83
2023-02-14T21:55:07.732Z,79.79
2023-02-14T21:57:34.993Z,79.77
2023-02-14T22:00:02.158Z,79.89
2023-02-14T22:02:29.631Z,79.80
2023-02-14T22:04:57.107Z,79.75
2023-02-14T22:07:27.522Z,79.94
2023-02-14T22:09:54.937Z,79.75
2023-02-14T22:12:22.731Z,79.60
2023-02-14T22:14:49.897Z,79.95
2023-02-14T22:17:17.219Z,80.06
2023-02-14T22:19:45.328Z,80.13
2023-02-14T22:22:15.009Z,80.20
2023-02-14T22:24:42.152Z,79.95
2023-02-14T22:27:09.856Z,79.98
2023-02-14T22:29:37.333Z,79.81
2023-02-14T22:32:07.542Z,79.73
2023-02-14T22:34:38.137Z,80.01
2023-02-14T22:37:05.038Z,79.65
2023-02-14T22:39:32.136Z,79.83
2023-02-14T22:42:05.779Z,79.79
2023-02-14T22:44:33.584Z,79.88
2023-02-14T22:47:03.308Z,79.86
2023-02-14T22:49:31.261Z,79.84
2023-02-14T22:51:58.371Z,79.86
2023-02-14T22:54:25.335Z,79.73
2023-02-14T22:56:52.573Z,80.08
2023-02-14T22:59:24.716Z,80.34
2023-02-14T23:01:55.178Z,80.24
2023-02-14T23:04:25.208Z,80.41
2023-02-14T23:06:54.000Z,79.99
2023-02-14T23:09:21.592Z,80.33
2023-02-14T23:11:49.525Z,80.30
2023-02-14T23:14:41.427Z,80.34
2023-02-14T23:17:15.365Z,79.92
2023-02-14T23:20:02.574Z,79.89
2023-02-14T23:22:33.212Z,80.40
2023-02-14T23:25:03.821Z,80.39
2023-02-14T23:27:39.685Z,80.36
2023-02-14T23:30:10.737Z,80.38
2023-02-14T23:32:37.783Z,80.61
2023-02-14T23:35:05.454Z,80.53
2023-02-14T23:37:37.472Z,80.06
2023-02-14T23:40:05.176Z,80.28
2023-02-14T23:42:32.715Z,80.16
2023-02-14T23:45:19.832Z,80.47
2023-02-14T23:47:46.890Z,80.84
2023-02-14T23:50:14.020Z,80.71
2023-02-14T23:52:42.504Z,80.82
2023-02-14T23:55:09.830Z,81.00
2023-02-14T23:57:40.027Z,80.76
